createdAt,value
2018-04-17T00:00:10.990Z,88.31
2018-04-17T00:01:10.973Z,88.12
2018-04-17T00:02:10.956Z,88.02
2018-04-17T00:03:10.936Z,88.59
2018-04-17T00:04:10.929Z,88.78
2018-04-17T00:05:10.901Z,88.78
2018-04-17T00:06:10.884Z,88.78
2018-04-17T00:07:10.871Z,88.98
2018-04-17T00:08:10.849Z,88.98
2018-04-17T00:09:10.831Z,89.45
2018-04-17T00:10:10.825Z,89.45
2018-04-17T00:11:10.803Z,89.50
2018-04-17T00:12:10.783Z,89.31
2018-04-17T00:13:10.768Z,89.12
2018-04-17T00:14:10.761Z,89.40
2018-04-17T00:15:10.741Z,89.40
2018-04-17T00:16:10.716Z,89.60
2018-04-17T00:17:10.697Z,89.03
2018-04-17T00:18:10.735Z,89.40
2018-04-17T00:19:10.662Z,89.40
2018-04-17T00:20:10.643Z,89.54
2018-04-17T00:21:10.626Z,89.98
2018-04-17T00:22:10.610Z,90.17
2018-04-17T00:23:10.592Z,90.08
2018-04-17T00:24:10.576Z,89.89
2018-04-17T00:25:10.555Z,89.98
2018-04-17T00:26:10.539Z,89.89
2018-04-17T00:27:10.526Z,89.50
2018-04-17T00:28:10.505Z,89.50
2018-04-17T00:29:10.487Z,90.26
2018-04-17T00:30:10.470Z,90.36
2018-04-17T00:31:10.577Z,90.55
2018-04-17T00:32:10.435Z,90.84
2018-04-17T00:33:10.421Z,90.74
2018-04-17T00:34:10.419Z,90.41
2018-04-17T00:35:10.383Z,90.45
2018-04-17T00:36:10.365Z,89.79
2018-04-17T00:37:10.350Z,90.17
2018-04-17T00:38:10.334Z,89.98
2018-04-17T00:39:10.312Z,90.08
2018-04-17T00:40:10.298Z,89.98
2018-04-17T00:41:10.283Z,90.64
2018-04-17T00:42:10.265Z,90.55
2018-04-17T00:43:10.243Z,90.84
2018-04-17T00:44:10.226Z,91.03
2018-04-17T00:45:10.213Z,91.41
2018-04-17T00:46:10.203Z,91.03
2018-04-17T00:47:10.176Z,91.31
2018-04-17T00:48:10.207Z,91.22
2018-04-17T00:49:10.145Z,91.41
2018-04-17T00:50:10.128Z,91.03
2018-04-17T00:51:10.106Z,91.50
2018-04-17T00:52:10.094Z,91.60
2018-04-17T00:53:10.136Z,91.88
2018-04-17T00:54:10.057Z,91.60
2018-04-17T00:55:10.036Z,92.27
2018-04-17T00:56:10.024Z,92.03
2018-04-17T00:57:10.005Z,91.98
2018-04-17T00:58:09.985Z,91.74
2018-04-17T00:59:09.967Z,91.94
2018-04-17T01:00:09.959Z,92.08
2018-04-17T01:01:10.037Z,92.03
2018-04-17T01:02:09.916Z,91.84
2018-04-17T01:03:09.909Z,91.65
2018-04-17T01:04:09.883Z,91.94
2018-04-17T01:05:09.864Z,92.22
2018-04-17T01:06:09.855Z,92.22
2018-04-17T01:07:09.834Z,92.98
2018-04-17T01:08:09.809Z,92.79
2018-04-17T01:09:09.793Z,92.50
2018-04-17T01:10:09.782Z,93.08
2018-04-17T01:11:09.760Z,92.79
2018-04-17T01:12:09.739Z,92.98
2018-04-17T01:13:09.718Z,92.89
2018-04-17T01:14:09.704Z,92.69
2018-04-17T01:15:09.687Z,92.69
2018-04-17T01:16:09.669Z,92.98
2018-04-17T01:17:09.652Z,93.27
2018-04-17T01:18:09.633Z,93.27
2018-04-17T01:19:09.616Z,93.27
2018-04-17T01:20:09.597Z,93.08
2018-04-17T01:21:09.576Z,93.27
2018-04-17T01:22:09.561Z,92.98
2018-04-17T01:23:09.543Z,93.08
2018-04-17T01:24:09.524Z,93.17
2018-04-17T01:25:09.507Z,93.27
2018-04-17T01:26:09.496Z,93.27
2018-04-17T01:27:09.471Z,93.55
2018-04-17T01:28:09.453Z,93.93
2018-04-17T01:29:09.442Z,93.84
2018-04-17T01:30:09.417Z,93.93
2018-04-17T01:31:09.399Z,93.65
2018-04-17T01:32:09.390Z,93.17
2018-04-17T01:33:09.363Z,92.79
2018-04-17T01:34:09.353Z,93.08
2018-04-17T01:35:09.328Z,93.65
2018-04-17T01:36:09.379Z,93.46
2018-04-17T01:37:09.292Z,93.84
2018-04-17T01:38:09.274Z,93.93
2018-04-17T01:39:09.267Z,93.37
2018-04-17T01:40:09.237Z,93.37
2018-04-17T01:41:09.218Z,93.17
2018-04-17T01:42:09.204Z,93.27
2018-04-17T01:43:09.183Z,92.98
2018-04-17T01:44:09.168Z,92.89
2018-04-17T01:45:09.147Z,93.27
2018-04-17T01:46:09.130Z,93.08
2018-04-17T01:47:09.112Z,92.89
2018-04-17T01:48:09.098Z,92.98
2018-04-17T01:49:09.077Z,92.79
2018-04-17T01:50:09.061Z,93.74
2018-04-17T01:51:09.043Z,93.55
2018-04-17T01:52:09.022Z,93.84
2018-04-17T01:53:09.009Z,93.93
2018-04-17T01:54:08.989Z,93.74
2018-04-17T01:55:08.971Z,94.41
2018-04-17T01:56:08.967Z,94.60
2018-04-17T01:57:08.945Z,94.22
2018-04-17T01:58:08.918Z,94.32
2018-04-17T01:59:08.898Z,94.32
2018-04-17T02:00:08.881Z,94.08
2018-04-17T02:01:08.867Z,94.22
2018-04-17T02:02:08.850Z,94.17
2018-04-17T02:03:08.951Z,94.37
2018-04-17T02:04:08.809Z,94.37
2018-04-17T02:05:08.792Z,94.56
2018-04-17T02:06:08.886Z,94.37
2018-04-17T02:07:08.760Z,94.17
2018-04-17T02:08:08.749Z,94.13
2018-04-17T02:09:08.724Z,94.37
2018-04-17T02:10:08.701Z,94.22
2018-04-17T02:11:08.687Z,94.37
2018-04-17T02:12:08.668Z,94.37
2018-04-17T02:13:08.652Z,94.37
2018-04-17T02:14:08.629Z,94.37
2018-04-17T02:15:08.612Z,94.03
2018-04-17T02:16:08.593Z,94.46
2018-04-17T02:17:08.578Z,94.56
2018-04-17T02:18:08.568Z,94.56
2018-04-17T02:19:08.544Z,94.74
2018-04-17T02:20:08.520Z,95.32
2018-04-17T02:21:08.502Z,95.41
2018-04-17T02:22:08.637Z,95.12
2018-04-17T02:23:08.468Z,94.93
2018-04-17T02:24:08.451Z,94.46
2018-04-17T02:25:08.482Z,94.56
2018-04-17T02:26:08.411Z,94.74
2018-04-17T02:27:08.393Z,94.74
2018-04-17T02:28:08.393Z,94.93
2018-04-17T02:29:08.375Z,94.65
2018-04-17T02:30:08.339Z,94.93
2018-04-17T02:31:08.320Z,94.74
2018-04-17T02:32:08.312Z,95.12
2018-04-17T02:33:08.283Z,95.41
2018-04-17T02:34:08.266Z,95.51
2018-04-17T02:35:08.249Z,95.32
2018-04-17T02:36:08.229Z,95.51
2018-04-17T02:37:08.211Z,95.51
2018-04-17T02:38:08.272Z,95.60
2018-04-17T02:39:08.177Z,95.32
2018-04-17T02:40:08.159Z,95.12
2018-04-17T02:41:08.141Z,94.74
2018-04-17T02:42:08.120Z,94.93
2018-04-17T02:43:08.101Z,94.65
2018-04-17T02:44:08.085Z,94.74
2018-04-17T02:45:08.065Z,94.93
2018-04-17T02:46:08.064Z,94.93
2018-04-17T02:47:08.031Z,94.93
2018-04-17T02:48:08.019Z,95.32
2018-04-17T02:49:07.994Z,94.93
2018-04-17T02:50:07.974Z,95.03
2018-04-17T02:51:07.954Z,94.93
2018-04-17T02:52:07.937Z,94.93
2018-04-17T02:53:07.915Z,94.93
2018-04-17T02:54:07.899Z,94.74
2018-04-17T02:55:07.883Z,95.51
2018-04-17T02:56:07.863Z,95.22
2018-04-17T02:57:07.843Z,95.41
2018-04-17T02:58:07.824Z,95.22
2018-04-17T02:59:07.807Z,95.32
2018-04-17T03:00:07.788Z,95.22
2018-04-17T03:01:07.772Z,95.51
2018-04-17T03:02:07.751Z,95.22
2018-04-17T03:03:07.734Z,95.12
2018-04-17T03:04:07.713Z,95.32
2018-04-17T03:05:07.716Z,95.12
2018-04-17T03:06:07.680Z,95.22
2018-04-17T03:07:07.671Z,95.70
2018-04-17T03:08:07.642Z,95.56
2018-04-17T03:09:07.629Z,95.94
2018-04-17T03:10:07.606Z,96.12
2018-04-17T03:11:07.585Z,95.94
2018-04-17T03:12:07.573Z,96.03
2018-04-17T03:13:07.546Z,95.75
2018-04-17T03:14:07.529Z,96.03
2018-04-17T03:15:07.511Z,95.75
2018-04-17T03:16:07.492Z,96.31
2018-04-17T03:17:07.476Z,95.94
2018-04-17T03:18:07.454Z,96.03
2018-04-17T03:19:07.441Z,96.03
2018-04-17T03:20:07.428Z,96.31
2018-04-17T03:21:07.559Z,96.31
2018-04-17T03:22:07.382Z,96.60
2018-04-17T03:23:07.362Z,95.94
2018-04-17T03:24:07.352Z,95.94
2018-04-17T03:25:07.324Z,95.94
2018-04-17T03:26:07.309Z,95.84
2018-04-17T03:27:07.289Z,95.94
2018-04-17T03:28:07.271Z,96.12
2018-04-17T03:29:07.253Z,95.75
2018-04-17T03:30:07.245Z,96.03
2018-04-17T03:31:07.213Z,95.94
2018-04-17T03:32:07.201Z,96.03
2018-04-17T03:33:07.177Z,96.03
2018-04-17T03:34:07.166Z,95.75
2018-04-17T03:35:07.140Z,96.51
2018-04-17T03:36:07.127Z,96.03
2018-04-17T03:37:07.146Z,96.12
2018-04-17T03:38:07.086Z,96.79
2018-04-17T03:40:03.526Z,96.89
2018-04-17T03:41:00.678Z,97.08
2018-04-17T03:42:00.663Z,96.89
2018-04-17T03:43:00.641Z,97.17
2018-04-17T03:44:00.625Z,97.27
2018-04-17T03:45:00.605Z,96.51
2018-04-17T03:46:00.588Z,96.70
2018-04-17T03:47:00.565Z,96.98
2018-04-17T03:48:00.543Z,96.98
2018-04-17T03:49:00.527Z,97.08
2018-04-17T03:50:00.507Z,96.98
2018-04-17T03:51:00.488Z,97.17
2018-04-17T03:52:00.473Z,97.17
2018-04-17T03:53:00.454Z,96.98
2018-04-17T03:54:00.443Z,97.17
2018-04-17T03:55:00.433Z,96.79
2018-04-17T03:56:00.393Z,96.51
2018-04-17T03:57:00.377Z,96.60
2018-04-17T03:58:00.358Z,96.41
2018-04-17T03:59:00.335Z,96.60
2018-04-17T04:00:00.334Z,96.41
2018-04-17T04:01:00.297Z,96.70
2018-04-17T04:02:00.294Z,96.31
2018-04-17T04:03:00.269Z,96.98
2018-04-17T04:04:00.242Z,97.36
2018-04-17T04:05:00.223Z,97.84
2018-04-17T04:06:00.207Z,97.65
2018-04-17T04:07:00.185Z,97.65
2018-04-17T04:08:00.166Z,97.65
2018-04-17T04:09:00.147Z,97.84
2018-04-17T04:10:00.140Z,97.84
2018-04-17T04:11:00.112Z,97.93
2018-04-17T04:12:00.091Z,98.03
2018-04-17T04:13:00.088Z,97.93
2018-04-17T04:14:00.055Z,97.84
2018-04-17T04:15:00.046Z,97.46
2018-04-17T04:16:00.016Z,97.74
2018-04-17T04:16:59.996Z,97.74
2018-04-17T04:17:59.980Z,97.74
2018-04-17T04:19:00.033Z,97.74
2018-04-17T04:19:59.953Z,97.65
2018-04-17T04:20:59.920Z,97.74
2018-04-17T04:21:59.903Z,97.93
2018-04-17T04:22:59.881Z,98.03
2018-04-17T04:23:59.891Z,97.93
2018-04-17T04:24:59.844Z,97.93
2018-04-17T04:25:59.829Z,97.55
2018-04-17T04:26:59.809Z,98.22
2018-04-17T04:27:59.789Z,97.93
2018-04-17T04:28:59.777Z,98.03
2018-04-17T04:29:59.763Z,98.60
2018-04-17T04:30:59.735Z,98.41
2018-04-17T04:31:59.713Z,98.32
2018-04-17T04:32:59.693Z,98.98
2018-04-17T04:33:59.678Z,98.03
2018-04-17T04:34:59.658Z,98.03
2018-04-17T04:35:59.649Z,98.41
2018-04-17T04:36:59.618Z,97.36
2018-04-17T04:37:59.617Z,97.65
2018-04-17T04:38:59.579Z,97.74
2018-04-17T04:39:59.569Z,97.84
2018-04-17T04:40:59.555Z,97.84
2018-04-17T04:41:59.526Z,97.46
2018-04-17T04:42:59.508Z,98.03
2018-04-17T04:43:59.488Z,97.93
2018-04-17T04:44:59.472Z,97.84
2018-04-17T04:45:59.564Z,97.65
2018-04-17T04:46:59.441Z,98.13
2018-04-17T04:47:59.418Z,98.03
2018-04-17T04:48:59.499Z,98.22
2018-04-17T04:49:59.377Z,98.46
2018-04-17T04:50:59.357Z,98.08
2018-04-17T04:51:59.389Z,98.27
2018-04-17T04:52:59.318Z,98.13
2018-04-17T04:53:59.299Z,97.99
2018-04-17T04:54:59.281Z,98.65
2018-04-17T04:55:59.266Z,98.27
2018-04-17T04:56:59.246Z,98.50
2018-04-17T04:57:59.228Z,98.94
2018-04-17T04:58:59.207Z,98.84
2018-04-17T04:59:59.188Z,98.94
2018-04-17T05:00:59.168Z,98.46
2018-04-17T05:01:59.153Z,98.65
2018-04-17T05:02:59.131Z,98.94
2018-04-17T05:03:59.114Z,98.08
2018-04-17T05:04:59.094Z,98.27
2018-04-17T05:05:59.075Z,98.18
2018-04-17T05:06:59.067Z,97.99
2018-04-17T05:07:59.139Z,98.27
2018-04-17T05:08:59.024Z,97.99
2018-04-17T05:09:58.999Z,97.51
2018-04-17T05:10:59.025Z,97.79
2018-04-17T05:11:58.964Z,97.99
2018-04-17T05:12:58.943Z,97.79
2018-04-17T05:13:58.937Z,97.22
2018-04-17T05:14:58.918Z,97.41
2018-04-17T05:15:58.889Z,97.13
2018-04-17T05:16:58.876Z,96.55
2018-04-17T05:17:58.855Z,96.55
2018-04-17T05:18:58.835Z,96.36
2018-04-17T05:19:58.834Z,96.60
2018-04-17T05:20:58.800Z,96.22
2018-04-17T05:21:58.780Z,96.12
2018-04-17T05:22:58.767Z,96.03
2018-04-17T05:23:58.766Z,96.03
2018-04-17T05:24:58.725Z,96.12
2018-04-17T05:25:58.706Z,96.12
2018-04-17T05:26:58.705Z,96.41
2018-04-17T05:27:58.676Z,95.94
2018-04-17T05:28:58.654Z,96.03
2018-04-17T05:29:58.634Z,95.84
2018-04-17T05:30:58.612Z,95.84
2018-04-17T05:31:58.596Z,95.46
2018-04-17T05:32:58.578Z,95.36
2018-04-17T05:33:58.572Z,95.17
2018-04-17T05:34:58.551Z,94.32
2018-04-17T05:35:58.526Z,94.32
2018-04-17T05:36:58.505Z,94.17
2018-04-17T05:37:58.491Z,94.27
2018-04-17T05:38:58.472Z,93.98
2018-04-17T05:39:58.453Z,93.12
2018-04-17T05:40:58.450Z,93.12
2018-04-17T05:41:58.426Z,93.03
2018-04-17T05:42:58.401Z,92.46
2018-04-17T05:43:58.382Z,91.07
2018-04-17T05:44:58.372Z,89.83
2018-04-17T05:45:58.354Z,88.35
2018-04-17T05:46:58.326Z,87.49
2018-04-17T05:47:58.318Z,86.49
2018-04-17T05:48:58.291Z,85.44
2018-04-17T05:49:58.275Z,83.76
2018-04-17T05:50:58.288Z,83.28
2018-04-17T05:51:58.244Z,81.56
2018-04-17T05:52:58.229Z,80.74
2018-04-17T05:53:58.233Z,79.98
2018-04-17T05:54:58.194Z,78.93
2018-04-17T05:55:58.205Z,78.58
2018-04-17T05:56:58.161Z,78.55
2018-04-17T05:57:58.148Z,78.64
2018-04-17T05:58:58.130Z,79.22
2018-04-17T05:59:58.113Z,79.02
2018-04-17T06:00:58.104Z,79.31
2018-04-17T06:01:58.090Z,79.06
2018-04-17T06:02:58.069Z,77.92
2018-04-17T06:03:58.053Z,77.34
2018-04-17T06:04:58.050Z,76.14
2018-04-17T06:05:58.028Z,75.66
2018-04-17T06:06:58.065Z,74.55
2018-04-17T06:07:57.995Z,74.16
2018-04-17T06:08:57.988Z,73.11
2018-04-17T06:09:57.979Z,72.73
2018-04-17T06:10:57.955Z,72.73
2018-04-17T06:11:57.951Z,72.92
2018-04-17T06:12:57.932Z,72.34
2018-04-17T06:13:57.912Z,72.77
2018-04-17T06:14:57.899Z,73.24
2018-04-17T06:15:57.896Z,72.44
2018-04-17T06:16:57.874Z,71.52
2018-04-17T06:17:57.863Z,71.14
2018-04-17T06:18:57.848Z,70.50
2018-04-17T06:19:57.835Z,70.21
2018-04-17T06:20:57.834Z,69.74
2018-04-17T06:21:57.819Z,68.97
2018-04-17T06:22:57.802Z,68.43
2018-04-17T06:23:57.802Z,68.72
2018-04-17T06:24:57.775Z,67.76
2018-04-17T06:25:57.776Z,66.99
2018-04-17T06:26:57.751Z,67.50
2018-04-17T06:27:57.739Z,67.22
2018-04-17T06:28:57.728Z,66.61
2018-04-17T06:29:57.721Z,67.28
2018-04-17T06:30:57.707Z,68.11
2018-04-17T06:31:57.697Z,68.94
2018-04-17T06:32:57.682Z,70.47
2018-04-17T06:33:57.711Z,70.37
2018-04-17T06:34:57.696Z,71.48
2018-04-17T06:35:57.649Z,71.04
2018-04-17T06:36:57.639Z,70.85
2018-04-17T06:37:57.635Z,70.47
2018-04-17T06:38:57.620Z,69.99
2018-04-17T06:39:57.606Z,70.03
2018-04-17T06:40:57.596Z,68.87
2018-04-17T06:41:57.606Z,68.49
2018-04-17T06:42:57.574Z,68.87
2018-04-17T06:43:57.565Z,69.89
2018-04-17T06:44:57.554Z,70.91
2018-04-17T06:45:57.541Z,72.54
2018-04-17T06:46:57.547Z,73.79
2018-04-17T06:47:57.516Z,74.61
2018-04-17T06:48:57.506Z,75.56
2018-04-17T06:49:57.505Z,75.95
2018-04-17T06:50:57.488Z,76.42
2018-04-17T06:51:57.474Z,77.34
2018-04-17T06:52:57.468Z,77.92
2018-04-17T06:53:57.453Z,77.92
2018-04-17T06:54:57.439Z,78.78
2018-04-17T06:55:57.426Z,78.97
2018-04-17T06:56:57.414Z,78.58
2018-04-17T06:57:57.426Z,78.58
2018-04-17T06:58:57.392Z,78.97
2018-04-17T06:59:57.383Z,79.44
2018-04-17T07:00:57.366Z,79.06
2018-04-17T07:01:57.354Z,79.16
2018-04-17T07:02:57.479Z,78.58
2018-04-17T07:03:57.331Z,78.78
2018-04-17T07:04:57.316Z,78.63
2018-04-17T07:05:57.312Z,78.05
2018-04-17T07:06:57.286Z,77.57
2018-04-17T07:07:57.282Z,77.28
2018-04-17T07:08:57.271Z,76.94
2018-04-17T07:09:57.252Z,75.45
2018-04-17T07:10:57.245Z,75.26
2018-04-17T07:11:57.224Z,73.76
2018-04-17T07:12:57.220Z,72.52
2018-04-17T07:13:57.198Z,73.09
2018-04-17T07:14:57.185Z,73.19
2018-04-17T07:15:57.177Z,73.24
2018-04-17T07:16:57.198Z,74.15
2018-04-17T07:17:57.154Z,73.09
2018-04-17T07:18:57.151Z,73.28
2018-04-17T07:19:57.124Z,73.19
2018-04-17T07:20:57.116Z,73.38
2018-04-17T07:21:57.105Z,73.47
2018-04-17T07:22:57.086Z,73.66
2018-04-17T07:23:57.073Z,72.55
2018-04-17T07:24:57.061Z,71.98
2018-04-17T07:25:57.046Z,71.15
2018-04-17T07:26:57.094Z,69.90
2018-04-17T07:27:57.025Z,69.36
2018-04-17T07:28:57.015Z,68.98
2018-04-17T07:29:59.683Z,68.40
2018-04-17T07:31:42.477Z,68.21
2018-04-17T07:32:42.335Z,68.40
2018-04-17T07:33:42.318Z,68.40
2018-04-17T07:34:42.323Z,68.79
2018-04-17T07:35:42.289Z,69.33
2018-04-17T07:36:42.280Z,69.33
2018-04-17T07:37:42.274Z,69.33
2018-04-17T07:38:42.260Z,69.46
2018-04-17T07:39:42.250Z,69.33
2018-04-17T07:40:42.250Z,69.26
2018-04-17T07:41:42.229Z,68.50
2018-04-17T07:42:42.227Z,68.59
2018-04-17T07:43:42.208Z,67.96
2018-04-17T07:44:42.205Z,66.52
2018-04-17T07:45:42.192Z,66.13
2018-04-17T07:46:42.197Z,65.94
2018-04-17T07:47:42.179Z,66.13
2018-04-17T07:48:42.159Z,66.71
2018-04-17T07:49:42.148Z,67.00
2018-04-17T07:50:42.150Z,66.07
2018-04-17T07:51:42.145Z,66.16
2018-04-17T07:52:42.120Z,65.11
2018-04-17T07:53:42.113Z,64.63
2018-04-17T07:54:42.111Z,64.25
2018-04-17T07:55:42.153Z,64.63
2018-04-17T07:56:42.087Z,65.59
2018-04-17T07:57:42.091Z,64.59
2018-04-17T07:58:42.124Z,65.17
2018-04-17T07:59:42.058Z,66.16
2018-04-17T08:00:42.057Z,66.13
2018-04-17T08:01:42.040Z,65.97
2018-04-17T08:02:42.037Z,65.40
2018-04-17T08:03:42.025Z,64.63
2018-04-17T08:04:42.022Z,64.76
2018-04-17T08:05:42.009Z,65.05
2018-04-17T08:06:41.998Z,64.63
2018-04-17T08:07:41.988Z,62.45
2018-04-17T08:08:41.981Z,62.35
2018-04-17T08:09:41.980Z,62.26
2018-04-17T08:10:41.972Z,62.00
2018-04-17T08:11:42.022Z,60.37
2018-04-17T08:12:41.957Z,59.53
2018-04-17T08:13:41.937Z,59.05
2018-04-17T08:14:41.928Z,59.05
2018-04-17T08:15:41.921Z,58.57
2018-04-17T08:16:41.919Z,58.70
2018-04-17T08:17:41.904Z,57.06
2018-04-17T08:18:41.894Z,57.15
2018-04-17T08:19:41.890Z,56.60
2018-04-17T08:20:41.878Z,56.67
2018-04-17T08:21:41.970Z,57.06
2018-04-17T08:22:41.873Z,57.25
2018-04-17T08:23:41.864Z,57.06
2018-04-17T08:24:41.915Z,56.65
2018-04-17T08:25:41.838Z,56.29
2018-04-17T08:26:41.834Z,56.45
2018-04-17T08:27:41.837Z,57.22
2018-04-17T08:28:41.818Z,56.55
2018-04-17T08:29:41.815Z,56.55
2018-04-17T08:30:41.798Z,56.93
2018-04-17T08:31:41.793Z,56.93
2018-04-17T08:32:41.792Z,57.22
2018-04-17T08:33:41.778Z,57.22
2018-04-17T08:34:41.776Z,56.84
2018-04-17T08:35:41.762Z,57.22
2018-04-17T08:36:41.753Z,57.22
2018-04-17T08:37:41.746Z,57.13
2018-04-17T08:38:41.743Z,56.55
2018-04-17T08:39:41.724Z,56.26
2018-04-17T08:40:41.718Z,55.78
2018-04-17T08:41:41.711Z,56.48
2018-04-17T08:42:41.711Z,56.10
2018-04-17T08:43:41.697Z,56.48
2018-04-17T08:44:41.692Z,55.71
2018-04-17T08:45:41.676Z,54.87
2018-04-17T08:46:41.667Z,54.10
2018-04-17T08:47:41.662Z,54.30
2018-04-17T08:48:41.651Z,54.49
2018-04-17T08:49:41.644Z,53.91
2018-04-17T08:50:41.652Z,54.17
2018-04-17T08:51:41.626Z,54.46
2018-04-17T08:52:41.620Z,53.91
2018-04-17T08:53:41.618Z,53.94
2018-04-17T08:54:41.600Z,52.42
2018-04-17T08:55:41.597Z,51.07
2018-04-17T08:56:41.584Z,50.49
2018-04-17T08:57:41.581Z,50.32
2018-04-17T08:58:41.579Z,49.77
2018-04-17T08:59:41.613Z,49.10
2018-04-17T09:00:41.554Z,48.33
2018-04-17T09:01:41.546Z,47.87
2018-04-17T09:02:41.548Z,47.29
2018-04-17T09:03:41.532Z,46.92
2018-04-17T09:04:41.524Z,45.18
2018-04-17T09:05:41.529Z,45.26
2018-04-17T09:06:41.511Z,45.65
2018-04-17T09:07:41.516Z,45.26
2018-04-17T09:08:41.514Z,45.28
2018-04-17T09:09:41.491Z,44.32
2018-04-17T09:10:41.483Z,44.78
2018-04-17T09:11:41.485Z,44.80
2018-04-17T09:12:41.472Z,43.28
2018-04-17T09:13:41.471Z,43.37
2018-04-17T09:14:41.461Z,43.47
2018-04-17T09:15:41.458Z,43.66
2018-04-17T09:16:41.463Z,43.57
2018-04-17T09:17:41.448Z,43.66
2018-04-17T09:18:41.440Z,43.66
2018-04-17T09:19:41.440Z,43.85
2018-04-17T09:20:41.435Z,43.64
2018-04-17T09:21:41.432Z,43.35
2018-04-17T09:22:41.423Z,44.90
2018-04-17T09:23:41.418Z,43.91
2018-04-17T09:24:41.414Z,45.62
2018-04-17T09:25:41.413Z,44.56
2018-04-17T09:26:41.422Z,45.04
2018-04-17T09:27:41.402Z,45.92
2018-04-17T09:28:41.409Z,44.56
2018-04-17T09:29:41.396Z,44.59
2018-04-17T09:30:41.390Z,44.42
2018-04-17T09:31:41.399Z,40.86
2018-04-17T09:32:41.382Z,40.47
2018-04-17T09:33:41.382Z,40.57
2018-04-17T09:34:41.377Z,39.99
2018-04-17T09:35:41.373Z,39.34
2018-04-17T09:36:41.374Z,39.16
2018-04-17T09:37:41.368Z,39.64
2018-04-17T09:38:41.366Z,39.84
2018-04-17T09:39:41.366Z,40.05
2018-04-17T09:40:41.373Z,40.15
2018-04-17T09:41:41.359Z,40.25
2018-04-17T09:42:41.356Z,39.76
2018-04-17T09:43:41.363Z,40.32
2018-04-17T09:44:41.377Z,40.42
2018-04-17T09:45:41.356Z,40.53
2018-04-17T09:46:41.354Z,39.59
2018-04-17T09:47:41.349Z,39.20
2018-04-17T09:48:41.349Z,37.57
2018-04-17T09:49:41.348Z,38.35
2018-04-17T09:50:41.353Z,37.09
2018-04-17T09:51:41.349Z,37.48
2018-04-17T09:52:41.345Z,38.53
2018-04-17T09:53:41.346Z,38.41
2018-04-17T09:54:41.345Z,38.62
2018-04-17T09:55:41.346Z,38.41
2018-04-17T09:56:41.346Z,38.41
2018-04-17T09:57:41.368Z,38.23
2018-04-17T09:58:41.345Z,38.71
2018-04-17T09:59:41.349Z,39.18
2018-04-17T10:00:41.353Z,39.57
2018-04-17T10:01:41.357Z,39.37
2018-04-17T10:02:41.352Z,39.47
2018-04-17T10:03:41.353Z,37.73
2018-04-17T10:04:41.358Z,37.24
2018-04-17T10:05:41.361Z,37.82
2018-04-17T10:06:41.362Z,38.31
2018-04-17T10:07:41.366Z,38.48
2018-04-17T10:08:41.362Z,39.72
2018-04-17T10:09:41.361Z,39.70
2018-04-17T10:10:41.463Z,40.11
2018-04-17T10:11:41.371Z,39.45
2018-04-17T10:12:41.371Z,38.21
2018-04-17T10:13:41.364Z,37.15
2018-04-17T10:14:41.365Z,36.40
2018-04-17T10:15:41.378Z,35.73
2018-04-17T10:16:41.371Z,35.46
2018-04-17T10:17:41.384Z,35.36
2018-04-17T10:18:41.371Z,36.30
2018-04-17T10:19:41.384Z,36.98
2018-04-17T10:20:41.376Z,36.40
2018-04-17T10:21:41.382Z,36.32
2018-04-17T10:22:41.386Z,35.81
2018-04-17T10:23:41.384Z,36.28
2018-04-17T10:24:41.380Z,36.40
2018-04-17T10:25:41.393Z,35.91
2018-04-17T10:26:41.387Z,35.42
2018-04-17T10:27:41.492Z,35.25
2018-04-17T10:28:41.400Z,34.86
2018-04-17T10:29:41.390Z,35.25
2018-04-17T10:30:41.393Z,35.93
2018-04-17T10:31:41.396Z,35.35
2018-04-17T10:32:41.424Z,35.05
2018-04-17T10:33:41.400Z,35.07
2018-04-17T10:34:41.402Z,34.88
2018-04-17T10:35:41.406Z,34.86
2018-04-17T10:36:41.405Z,35.35
2018-04-17T10:37:41.411Z,37.15
2018-04-17T10:38:41.411Z,39.32
2018-04-17T10:39:41.468Z,39.62
2018-04-17T10:40:41.412Z,38.60
2018-04-17T10:41:41.428Z,37.48
2018-04-17T10:42:41.452Z,36.41
2018-04-17T10:43:41.418Z,35.91
2018-04-17T10:44:41.426Z,36.22
2018-04-17T10:45:41.423Z,36.12
2018-04-17T10:46:41.422Z,36.30
2018-04-17T10:47:41.432Z,36.12
2018-04-17T10:48:41.427Z,35.42
2018-04-17T10:49:41.427Z,35.83
2018-04-17T10:50:41.427Z,35.66
2018-04-17T10:51:41.434Z,34.89
2018-04-17T10:52:41.436Z,34.89
2018-04-17T10:53:41.432Z,34.97
2018-04-17T10:54:41.444Z,34.80
2018-04-17T10:55:41.437Z,34.99
2018-04-17T10:56:41.437Z,34.88
2018-04-17T10:57:41.439Z,34.96
2018-04-17T10:58:41.446Z,35.80
2018-04-17T10:59:41.492Z,37.05
2018-04-17T11:00:41.454Z,36.68
2018-04-17T11:01:41.447Z,35.73
2018-04-17T11:02:41.459Z,34.97
2018-04-17T11:03:41.453Z,34.41
2018-04-17T11:04:41.452Z,33.89
2018-04-17T11:05:41.458Z,34.77
2018-04-17T11:06:41.459Z,35.05
2018-04-17T11:07:41.467Z,34.67
2018-04-17T11:08:41.458Z,34.67
2018-04-17T11:09:41.461Z,34.11
2018-04-17T11:10:41.464Z,34.01
2018-04-17T11:11:41.467Z,34.97
2018-04-17T11:12:41.481Z,34.49
2018-04-17T11:13:41.479Z,34.97
2018-04-17T11:14:41.468Z,34.12
2018-04-17T11:15:41.469Z,34.22
2018-04-17T11:16:41.474Z,33.54
2018-04-17T11:17:41.483Z,33.64
2018-04-17T11:18:41.492Z,33.73
2018-04-17T11:19:41.493Z,33.83
2018-04-17T11:20:41.485Z,34.88
2018-04-17T11:21:41.487Z,34.49
2018-04-17T11:22:41.589Z,34.69
2018-04-17T11:23:41.494Z,34.01
2018-04-17T11:24:41.501Z,34.30
2018-04-17T11:25:41.496Z,34.19
2018-04-17T11:26:41.495Z,34.20
2018-04-17T11:27:41.497Z,35.12
2018-04-17T11:28:41.508Z,36.44
2018-04-17T11:29:41.503Z,36.84
2018-04-17T11:30:41.503Z,36.28
2018-04-17T11:31:41.504Z,35.72
2018-04-17T11:32:41.537Z,35.12
2018-04-17T11:33:41.512Z,35.33
2018-04-17T11:34:41.532Z,35.42
2018-04-17T11:35:41.513Z,35.15
2018-04-17T11:36:41.512Z,34.57
2018-04-17T11:37:41.512Z,33.91
2018-04-17T11:38:41.522Z,34.30
2018-04-17T11:39:41.849Z,34.86
2018-04-17T11:40:41.515Z,34.47
2018-04-17T11:41:41.517Z,34.45
2018-04-17T11:42:41.528Z,35.04
2018-04-17T11:43:41.521Z,34.11
2018-04-17T11:44:41.518Z,33.99
2018-04-17T11:45:41.529Z,34.09
2018-04-17T11:46:41.521Z,33.70
2018-04-17T11:47:41.521Z,34.36
2018-04-17T11:48:41.565Z,34.86
2018-04-17T11:49:41.521Z,34.77
2018-04-17T11:50:41.522Z,34.38
2018-04-17T11:51:41.520Z,34.94
2018-04-17T11:52:41.532Z,35.99
2018-04-17T11:53:41.522Z,36.20
2018-04-17T11:54:41.516Z,35.83
2018-04-17T11:55:41.566Z,35.64
2018-04-17T11:56:41.541Z,35.44
2018-04-17T11:57:41.514Z,35.93
2018-04-17T11:58:41.521Z,35.54
2018-04-17T11:59:41.508Z,35.35
2018-04-17T12:00:41.510Z,34.88
2018-04-17T12:01:41.504Z,34.96
2018-04-17T12:02:41.502Z,35.07
2018-04-17T12:03:41.501Z,34.94
2018-04-17T12:04:41.503Z,36.26
2018-04-17T12:05:41.498Z,36.94
2018-04-17T12:06:41.490Z,36.86
2018-04-17T12:07:41.492Z,37.04
2018-04-17T12:08:41.489Z,37.88
2018-04-17T12:09:41.481Z,38.46
2018-04-17T12:10:41.479Z,38.35
2018-04-17T12:11:41.478Z,39.41
2018-04-17T12:12:41.470Z,39.32
2018-04-17T12:13:41.567Z,38.93
2018-04-17T12:14:41.483Z,39.61
2018-04-17T12:15:41.450Z,39.41
2018-04-17T12:16:41.457Z,39.78
2018-04-17T12:17:41.439Z,39.49
2018-04-17T12:18:41.432Z,39.39
2018-04-17T12:19:41.427Z,39.51
2018-04-17T12:20:41.422Z,39.20
2018-04-17T12:21:41.418Z,40.15
2018-04-17T12:22:41.411Z,40.15
2018-04-17T12:23:41.401Z,40.15
2018-04-17T12:24:41.396Z,40.26
2018-04-17T12:25:41.396Z,39.47
2018-04-17T12:26:41.435Z,39.37
2018-04-17T12:27:41.380Z,39.37
2018-04-17T12:28:41.374Z,40.05
2018-04-17T12:29:41.367Z,39.49
2018-04-17T12:30:41.358Z,40.34
2018-04-17T12:31:41.346Z,39.97
2018-04-17T12:32:41.339Z,40.36
2018-04-17T12:33:41.427Z,40.07
2018-04-17T12:34:41.346Z,40.17
2018-04-17T12:35:41.316Z,39.69
2018-04-17T12:36:41.315Z,41.02
2018-04-17T12:37:41.296Z,40.92
2018-04-17T12:38:41.289Z,40.72
2018-04-17T12:39:41.280Z,40.24
2018-04-17T12:40:41.298Z,40.24
2018-04-17T12:41:41.273Z,40.05
2018-04-17T12:42:41.262Z,40.15
2018-04-17T12:43:41.263Z,40.44
2018-04-17T12:44:41.246Z,39.95
2018-04-17T12:45:41.232Z,39.97
2018-04-17T12:46:41.246Z,40.07
2018-04-17T12:47:41.216Z,39.97
2018-04-17T12:48:41.205Z,40.07
2018-04-17T12:49:41.255Z,39.39
2018-04-17T12:50:41.192Z,40.24
2018-04-17T12:51:41.182Z,40.05
2018-04-17T12:52:41.184Z,39.86
2018-04-17T12:53:41.173Z,39.47